sensor_id;sensor_type;location;lat;lon;timestamp;temperature;humidity
7700;DHT22;3892;47.794;19.126;2023-08-06T00:01:54;27.60;55.10
7700;DHT22;3892;47.794;19.126;2023-08-06T00:04:22;27.50;54.90
7700;DHT22;3892;47.794;19.126;2023-08-06T00:06:50;27.50;55.10
7700;DHT22;3892;47.794;19.126;2023-08-06T00:09:20;27.40;55.50
7700;DHT22;3892;47.794;19.126;2023-08-06T00:11:48;27.40;55.60
7700;DHT22;3892;47.794;19.126;2023-08-06T00:14:16;27.40;55.50
7700;DHT22;3892;47.794;19.126;2023-08-06T00:16:44;27.40;55.50
7700;DHT22;3892;47.794;19.126;2023-08-06T00:19:13;27.40;55.60
7700;DHT22;3892;47.794;19.126;2023-08-06T00:21:41;27.40;55.10
7700;DHT22;3892;47.794;19.126;2023-08-06T00:24:09;27.40;55.00
7700;DHT22;3892;47.794;19.126;2023-08-06T00:26:38;27.40;55.10
7700;DHT22;3892;47.794;19.126;2023-08-06T00:29:06;27.40;55.40
7700;DHT22;3892;47.794;19.126;2023-08-06T00:31:34;27.40;55.40
7700;DHT22;3892;47.794;19.126;2023-08-06T00:34:02;27.40;55.40
7700;DHT22;3892;47.794;19.126;2023-08-06T00:36:30;27.40;55.50
7700;DHT22;3892;47.794;19.126;2023-08-06T00:38:59;27.40;55.50
7700;DHT22;3892;47.794;19.126;2023-08-06T00:41:27;27.40;55.60
7700;DHT22;3892;47.794;19.126;2023-08-06T00:43:56;27.50;55.70
7700;DHT22;3892;47.794;19.126;2023-08-06T00:46:24;27.50;55.70
7700;DHT22;3892;47.794;19.126;2023-08-06T00:48:53;27.50;55.70
7700;DHT22;3892;47.794;19.126;2023-08-06T00:51:22;27.50;55.70
7700;DHT22;3892;47.794;19.126;2023-08-06T00:53:50;27.40;55.50
7700;DHT22;3892;47.794;19.126;2023-08-06T00:56:20;27.50;55.50
7700;DHT22;3892;47.794;19.126;2023-08-06T00:58:48;27.40;55.50
7700;DHT22;3892;47.794;19.126;2023-08-06T01:01:18;27.50;55.60
7700;DHT22;3892;47.794;19.126;2023-08-06T01:03:46;27.40;55.40
7700;DHT22;3892;47.794;19.126;2023-08-06T01:06:16;27.40;55.50
7700;DHT22;3892;47.794;19.126;2023-08-06T01:08:56;27.40;55.60
7700;DHT22;3892;47.794;19.126;2023-08-06T01:11:30;27.40;55.60
7700;DHT22;3892;47.794;19.126;2023-08-06T01:14:04;27.40;55.60
7700;DHT22;3892;47.794;19.126;2023-08-06T01:16:37;27.40;55.60
7700;DHT22;3892;47.794;19.126;2023-08-06T01:19:16;27.40;55.60
7700;DHT22;3892;47.794;19.126;2023-08-06T01:21:45;27.40;55.40
7700;DHT22;3892;47.794;19.126;2023-08-06T01:24:13;27.40;55.40
7700;DHT22;3892;47.794;19.126;2023-08-06T01:26:45;27.40;55.40
7700;DHT22;3892;47.794;19.126;2023-08-06T01:29:22;27.40;55.40
7700;DHT22;3892;47.794;19.126;2023-08-06T01:31:51;27.40;55.20
7700;DHT22;3892;47.794;19.126;2023-08-06T01:34:23;27.40;55.20
7700;DHT22;3892;47.794;19.126;2023-08-06T01:36:53;27.30;55.20
7700;DHT22;3892;47.794;19.126;2023-08-06T01:39:21;27.30;55.10
7700;DHT22;3892;47.794;19.126;2023-08-06T01:41:49;27.30;55.10
7700;DHT22;3892;47.794;19.126;2023-08-06T01:44:17;27.30;54.90
7700;DHT22;3892;47.794;19.126;2023-08-06T01:46:45;27.30;54.90
7700;DHT22;3892;47.794;19.126;2023-08-06T01:49:14;27.30;54.90
7700;DHT22;3892;47.794;19.126;2023-08-06T01:51:42;27.20;54.90
7700;DHT22;3892;47.794;19.126;2023-08-06T01:54:11;27.20;54.90
7700;DHT22;3892;47.794;19.126;2023-08-06T01:56:39;27.20;55.00
7700;DHT22;3892;47.794;19.126;2023-08-06T01:59:07;27.20;54.90
7700;DHT22;3892;47.794;19.126;2023-08-06T02:01:35;27.20;54.70
7700;DHT22;3892;47.794;19.126;2023-08-06T02:04:03;27.20;54.80
7700;DHT22;3892;47.794;19.126;2023-08-06T02:06:31;27.10;54.70
7700;DHT22;3892;47.794;19.126;2023-08-06T02:09:00;27.10;54.70
7700;DHT22;3892;47.794;19.126;2023-08-06T02:11:29;27.10;54.70
7700;DHT22;3892;47.794;19.126;2023-08-06T02:13:57;27.10;54.70
7700;DHT22;3892;47.794;19.126;2023-08-06T02:16:25;27.10;54.70
7700;DHT22;3892;47.794;19.126;2023-08-06T02:18:53;27.10;54.80
7700;DHT22;3892;47.794;19.126;2023-08-06T02:21:21;27.10;54.60
7700;DHT22;3892;47.794;19.126;2023-08-06T02:23:49;27.10;54.40
7700;DHT22;3892;47.794;19.126;2023-08-06T02:26:17;27.10;54.40
7700;DHT22;3892;47.794;19.126;2023-08-06T02:28:47;27.00;54.50
7700;DHT22;3892;47.794;19.126;2023-08-06T02:31:15;27.00;54.70
7700;DHT22;3892;47.794;19.126;2023-08-06T02:33:43;27.00;54.50
7700;DHT22;3892;47.794;19.126;2023-08-06T02:36:11;27.00;54.60
7700;DHT22;3892;47.794;19.126;2023-08-06T02:38:39;27.00;54.50
7700;DHT22;3892;47.794;19.126;2023-08-06T02:41:07;27.00;54.70
7700;DHT22;3892;47.794;19.126;2023-08-06T02:43:35;27.00;54.80
7700;DHT22;3892;47.794;19.126;2023-08-06T02:46:05;27.00;55.00
7700;DHT22;3892;47.794;19.126;2023-08-06T02:48:33;27.00;55.00
7700;DHT22;3892;47.794;19.126;2023-08-06T02:51:01;27.00;55.00
7700;DHT22;3892;47.794;19.126;2023-08-06T02:53:29;27.00;55.00
7700;DHT22;3892;47.794;19.126;2023-08-06T02:55:58;27.00;55.00
7700;DHT22;3892;47.794;19.126;2023-08-06T02:58:26;27.00;54.90
7700;DHT22;3892;47.794;19.126;2023-08-06T03:01:01;27.00;54.80
7700;DHT22;3892;47.794;19.126;2023-08-06T03:03:31;27.00;54.90
7700;DHT22;3892;47.794;19.126;2023-08-06T03:06:00;27.00;54.90
7700;DHT22;3892;47.794;19.126;2023-08-06T03:08:28;27.00;54.90
7700;DHT22;3892;47.794;19.126;2023-08-06T03:10:56;27.00;54.90
7700;DHT22;3892;47.794;19.126;2023-08-06T03:13:24;27.00;54.90
7700;DHT22;3892;47.794;19.126;2023-08-06T03:15:53;27.00;55.50
7700;DHT22;3892;47.794;19.126;2023-08-06T03:18:21;27.00;55.10
7700;DHT22;3892;47.794;19.126;2023-08-06T03:20:51;26.90;55.10
7700;DHT22;3892;47.794;19.126;2023-08-06T03:23:19;27.00;55.10
7700;DHT22;3892;47.794;19.126;2023-08-06T03:25:47;27.00;55.10
7700;DHT22;3892;47.794;19.126;2023-08-06T03:28:15;26.90;54.70
7700;DHT22;3892;47.794;19.126;2023-08-06T03:30:43;26.90;54.70
7700;DHT22;3892;47.794;19.126;2023-08-06T03:33:11;26.90;55.00
7700;DHT22;3892;47.794;19.126;2023-08-06T03:35:40;26.90;55.10
7700;DHT22;3892;47.794;19.126;2023-08-06T03:38:09;26.90;55.80
7700;DHT22;3892;47.794;19.126;2023-08-06T03:40:37;26.90;55.10
7700;DHT22;3892;47.794;19.126;2023-08-06T03:43:05;26.90;55.00
7700;DHT22;3892;47.794;19.126;2023-08-06T03:45:33;27.00;54.80
7700;DHT22;3892;47.794;19.126;2023-08-06T03:48:01;26.90;54.50
7700;DHT22;3892;47.794;19.126;2023-08-06T03:50:30;26.80;54.40
7700;DHT22;3892;47.794;19.126;2023-08-06T03:52:58;26.80;54.30
7700;DHT22;3892;47.794;19.126;2023-08-06T03:55:27;26.80;54.50
7700;DHT22;3892;47.794;19.126;2023-08-06T03:57:55;26.70;54.60
7700;DHT22;3892;47.794;19.126;2023-08-06T04:00:23;26.80;54.70
7700;DHT22;3892;47.794;19.126;2023-08-06T04:02:51;26.70;54.70
7700;DHT22;3892;47.794;19.126;2023-08-06T04:05:19;26.60;54.90
7700;DHT22;3892;47.794;19.126;2023-08-06T04:07:47;26.70;55.30
7700;DHT22;3892;47.794;19.126;2023-08-06T04:10:16;26.60;55.40
7700;DHT22;3892;47.794;19.126;2023-08-06T04:12:45;26.60;55.20
7700;DHT22;3892;47.794;19.126;2023-08-06T04:15:13;26.70;54.70
7700;DHT22;3892;47.794;19.126;2023-08-06T04:17:41;26.60;54.80
7700;DHT22;3892;47.794;19.126;2023-08-06T04:20:09;26.60;55.00
7700;DHT22;3892;47.794;19.126;2023-08-06T04:22:37;26.70;55.10
7700;DHT22;3892;47.794;19.126;2023-08-06T04:25:06;26.70;55.10
7700;DHT22;3892;47.794;19.126;2023-08-06T04:27:34;26.70;55.00
7700;DHT22;3892;47.794;19.126;2023-08-06T04:30:06;26.70;55.20
7700;DHT22;3892;47.794;19.126;2023-08-06T04:32:35;26.60;55.20
7700;DHT22;3892;47.794;19.126;2023-08-06T04:35:04;26.60;55.30
7700;DHT22;3892;47.794;19.126;2023-08-06T04:37:32;26.70;55.40
7700;DHT22;3892;47.794;19.126;2023-08-06T04:40:00;26.70;55.30
7700;DHT22;3892;47.794;19.126;2023-08-06T04:42:29;26.70;55.20
7700;DHT22;3892;47.794;19.126;2023-08-06T04:44:57;26.70;55.10
7700;DHT22;3892;47.794;19.126;2023-08-06T04:47:26;26.80;55.10
7700;DHT22;3892;47.794;19.126;2023-08-06T04:49:54;26.70;55.50
7700;DHT22;3892;47.794;19.126;2023-08-06T04:52:22;26.70;54.70
7700;DHT22;3892;47.794;19.126;2023-08-06T04:54:54;26.60;54.70
7700;DHT22;3892;47.794;19.126;2023-08-06T04:57:22;26.50;54.70
7700;DHT22;3892;47.794;19.126;2023-08-06T04:59:50;26.50;54.70
7700;DHT22;3892;47.794;19.126;2023-08-06T05:02:18;26.50;54.50
7700;DHT22;3892;47.794;19.126;2023-08-06T05:04:48;26.40;54.30
7700;DHT22;3892;47.794;19.126;2023-08-06T05:07:16;26.50;54.40
7700;DHT22;3892;47.794;19.126;2023-08-06T05:09:44;26.40;54.10
7700;DHT22;3892;47.794;19.126;2023-08-06T05:12:12;26.30;53.90
7700;DHT22;3892;47.794;19.126;2023-08-06T05:14:40;26.30;54.20
7700;DHT22;3892;47.794;19.126;2023-08-06T05:17:08;26.30;54.10
7700;DHT22;3892;47.794;19.126;2023-08-06T05:19:36;26.20;54.20
7700;DHT22;3892;47.794;19.126;2023-08-06T05:22:07;26.10;53.90
7700;DHT22;3892;47.794;19.126;2023-08-06T05:24:36;26.10;53.90
7700;DHT22;3892;47.794;19.126;2023-08-06T05:27:05;26.10;53.80
7700;DHT22;3892;47.794;19.126;2023-08-06T05:29:33;26.10;53.80
7700;DHT22;3892;47.794;19.126;2023-08-06T05:32:01;26.10;53.70
7700;DHT22;3892;47.794;19.126;2023-08-06T05:34:30;26.10;53.40
7700;DHT22;3892;47.794;19.126;2023-08-06T05:36:58;25.90;53.40
7700;DHT22;3892;47.794;19.126;2023-08-06T05:39:27;25.90;53.60
7700;DHT22;3892;47.794;19.126;2023-08-06T05:41:55;25.90;53.60
7700;DHT22;3892;47.794;19.126;2023-08-06T05:44:23;25.80;53.40
7700;DHT22;3892;47.794;19.126;2023-08-06T05:46:52;25.80;53.90
7700;DHT22;3892;47.794;19.126;2023-08-06T05:49:20;25.80;53.30
7700;DHT22;3892;47.794;19.126;2023-08-06T05:51:48;25.80;53.50
7700;DHT22;3892;47.794;19.126;2023-08-06T05:54:16;25.70;53.20
7700;DHT22;3892;47.794;19.126;2023-08-06T05:56:45;25.70;53.10
7700;DHT22;3892;47.794;19.126;2023-08-06T05:59:14;25.80;53.10
7700;DHT22;3892;47.794;19.126;2023-08-06T06:01:42;25.80;52.90
7700;DHT22;3892;47.794;19.126;2023-08-06T06:04:10;25.70;52.70
7700;DHT22;3892;47.794;19.126;2023-08-06T06:06:38;25.80;53.00
7700;DHT22;3892;47.794;19.126;2023-08-06T06:09:06;25.80;52.80
7700;DHT22;3892;47.794;19.126;2023-08-06T06:11:34;25.80;52.60
7700;DHT22;3892;47.794;19.126;2023-08-06T06:14:03;25.80;52.60
7700;DHT22;3892;47.794;19.126;2023-08-06T06:16:31;25.80;52.20
7700;DHT22;3892;47.794;19.126;2023-08-06T06:18:59;25.80;52.20
7700;DHT22;3892;47.794;19.126;2023-08-06T06:21:27;25.80;52.40
7700;DHT22;3892;47.794;19.126;2023-08-06T06:23:55;25.70;52.20
7700;DHT22;3892;47.794;19.126;2023-08-06T06:26:24;25.70;52.50
7700;DHT22;3892;47.794;19.126;2023-08-06T06:28:52;25.70;52.20
7700;DHT22;3892;47.794;19.126;2023-08-06T06:31:21;25.70;52.40
7700;DHT22;3892;47.794;19.126;2023-08-06T06:33:49;25.70;52.40
7700;DHT22;3892;47.794;19.126;2023-08-06T06:36:20;25.70;52.30
7700;DHT22;3892;47.794;19.126;2023-08-06T06:38:48;25.70;52.50
7700;DHT22;3892;47.794;19.126;2023-08-06T06:41:16;25.70;52.20
7700;DHT22;3892;47.794;19.126;2023-08-06T06:43:45;25.60;52.10
7700;DHT22;3892;47.794;19.126;2023-08-06T06:46:13;25.60;52.10
7700;DHT22;3892;47.794;19.126;2023-08-06T06:48:42;25.50;52.10
7700;DHT22;3892;47.794;19.126;2023-08-06T06:51:10;25.50;52.50
7700;DHT22;3892;47.794;19.126;2023-08-06T06:53:38;25.50;52.40
7700;DHT22;3892;47.794;19.126;2023-08-06T06:56:07;25.50;52.20
7700;DHT22;3892;47.794;19.126;2023-08-06T06:58:35;25.50;52.20
7700;DHT22;3892;47.794;19.126;2023-08-06T07:01:05;25.50;51.80
7700;DHT22;3892;47.794;19.126;2023-08-06T07:03:33;25.30;51.70
7700;DHT22;3892;47.794;19.126;2023-08-06T07:06:02;25.30;52.20
7700;DHT22;3892;47.794;19.126;2023-08-06T07:08:32;25.20;52.00
7700;DHT22;3892;47.794;19.126;2023-08-06T07:11:01;25.10;52.40
7700;DHT22;3892;47.794;19.126;2023-08-06T07:13:29;25.10;52.50
7700;DHT22;3892;47.794;19.126;2023-08-06T07:15:57;25.10;52.20
7700;DHT22;3892;47.794;19.126;2023-08-06T07:18:25;25.10;52.60
7700;DHT22;3892;47.794;19.126;2023-08-06T07:20:54;25.00;52.60
7700;DHT22;3892;47.794;19.126;2023-08-06T07:23:25;24.90;52.70
7700;DHT22;3892;47.794;19.126;2023-08-06T07:25:53;24.70;53.30
7700;DHT22;3892;47.794;19.126;2023-08-06T07:28:21;24.60;53.00
7700;DHT22;3892;47.794;19.126;2023-08-06T07:30:49;24.50;53.30
7700;DHT22;3892;47.794;19.126;2023-08-06T07:33:17;24.50;53.40
7700;DHT22;3892;47.794;19.126;2023-08-06T07:35:46;24.60;53.60
7700;DHT22;3892;47.794;19.126;2023-08-06T07:38:14;24.70;53.90
7700;DHT22;3892;47.794;19.126;2023-08-06T07:40:43;24.80;53.50
7700;DHT22;3892;47.794;19.126;2023-08-06T07:43:11;24.90;53.50
7700;DHT22;3892;47.794;19.126;2023-08-06T07:45:39;24.80;53.10
7700;DHT22;3892;47.794;19.126;2023-08-06T07:48:07;24.70;52.60
7700;DHT22;3892;47.794;19.126;2023-08-06T07:50:35;24.70;53.40
7700;DHT22;3892;47.794;19.126;2023-08-06T07:53:04;24.60;53.00
7700;DHT22;3892;47.794;19.126;2023-08-06T07:55:32;24.60;53.20
7700;DHT22;3892;47.794;19.126;2023-08-06T07:58:01;24.60;53.40
7700;DHT22;3892;47.794;19.126;2023-08-06T08:00:29;24.60;52.80
7700;DHT22;3892;47.794;19.126;2023-08-06T08:02:57;24.60;52.80
7700;DHT22;3892;47.794;19.126;2023-08-06T08:05:25;24.60;52.80
7700;DHT22;3892;47.794;19.126;2023-08-06T08:07:53;24.60;53.30
7700;DHT22;3892;47.794;19.126;2023-08-06T08:10:21;24.50;53.30
7700;DHT22;3892;47.794;19.126;2023-08-06T08:12:50;24.50;52.80
7700;DHT22;3892;47.794;19.126;2023-08-06T08:15:20;24.50;52.90
7700;DHT22;3892;47.794;19.126;2023-08-06T08:17:48;24.50;53.00
7700;DHT22;3892;47.794;19.126;2023-08-06T08:20:16;24.50;53.20
7700;DHT22;3892;47.794;19.126;2023-08-06T08:22:45;24.40;52.80
7700;DHT22;3892;47.794;19.126;2023-08-06T08:25:13;24.50;53.10
7700;DHT22;3892;47.794;19.126;2023-08-06T08:27:41;24.40;53.00
7700;DHT22;3892;47.794;19.126;2023-08-06T08:30:09;24.40;52.90
7700;DHT22;3892;47.794;19.126;2023-08-06T08:32:39;24.40;53.20
7700;DHT22;3892;47.794;19.126;2023-08-06T08:35:08;24.40;53.30
7700;DHT22;3892;47.794;19.126;2023-08-06T08:37:36;24.40;53.60
7700;DHT22;3892;47.794;19.126;2023-08-06T08:40:05;24.30;53.50
7700;DHT22;3892;47.794;19.126;2023-08-06T08:42:34;24.40;53.80
7700;DHT22;3892;47.794;19.126;2023-08-06T08:45:03;24.40;53.50
7700;DHT22;3892;47.794;19.126;2023-08-06T08:47:32;24.40;53.00
7700;DHT22;3892;47.794;19.126;2023-08-06T08:50:02;24.50;53.00
7700;DHT22;3892;47.794;19.126;2023-08-06T08:52:31;24.40;52.70
7700;DHT22;3892;47.794;19.126;2023-08-06T08:55:01;24.30;53.20
7700;DHT22;3892;47.794;19.126;2023-08-06T08:57:30;24.30;53.00
7700;DHT22;3892;47.794;19.126;2023-08-06T08:59:58;24.20;52.80
7700;DHT22;3892;47.794;19.126;2023-08-06T09:02:28;24.20;53.20
7700;DHT22;3892;47.794;19.126;2023-08-06T09:04:58;24.20;53.10
7700;DHT22;3892;47.794;19.126;2023-08-06T09:07:35;24.20;53.30
7700;DHT22;3892;47.794;19.126;2023-08-06T09:10:03;24.30;53.10
7700;DHT22;3892;47.794;19.126;2023-08-06T09:12:32;24.30;52.70
7700;DHT22;3892;47.794;19.126;2023-08-06T09:15:00;24.30;53.00
7700;DHT22;3892;47.794;19.126;2023-08-06T09:17:30;24.30;52.50
7700;DHT22;3892;47.794;19.126;2023-08-06T09:19:58;24.40;52.70
7700;DHT22;3892;47.794;19.126;2023-08-06T09:22:34;24.40;52.60
7700;DHT22;3892;47.794;19.126;2023-08-06T09:25:03;24.40;52.50
7700;DHT22;3892;47.794;19.126;2023-08-06T09:27:36;24.40;52.40
7700;DHT22;3892;47.794;19.126;2023-08-06T09:30:06;24.50;52.50
7700;DHT22;3892;47.794;19.126;2023-08-06T09:32:48;24.50;52.30
7700;DHT22;3892;47.794;19.126;2023-08-06T09:35:18;24.60;52.70
7700;DHT22;3892;47.794;19.126;2023-08-06T09:37:47;24.60;52.90
7700;DHT22;3892;47.794;19.126;2023-08-06T09:40:25;24.70;53.40
7700;DHT22;3892;47.794;19.126;2023-08-06T09:42:54;24.70;52.60
7700;DHT22;3892;47.794;19.126;2023-08-06T09:45:22;24.70;52.20
7700;DHT22;3892;47.794;19.126;2023-08-06T09:47:51;24.70;52.50
7700;DHT22;3892;47.794;19.126;2023-08-06T09:50:23;24.70;51.70
7700;DHT22;3892;47.794;19.126;2023-08-06T09:52:56;24.80;52.10
7700;DHT22;3892;47.794;19.126;2023-08-06T09:55:25;24.80;52.00
7700;DHT22;3892;47.794;19.126;2023-08-06T09:57:54;24.90;52.50
7700;DHT22;3892;47.794;19.126;2023-08-06T10:00:22;24.90;51.60
7700;DHT22;3892;47.794;19.126;2023-08-06T10:02:51;25.00;52.20
7700;DHT22;3892;47.794;19.126;2023-08-06T10:05:23;25.00;52.00
7700;DHT22;3892;47.794;19.126;2023-08-06T10:07:51;25.00;52.40
7700;DHT22;3892;47.794;19.126;2023-08-06T10:10:21;25.00;52.00
7700;DHT22;3892;47.794;19.126;2023-08-06T10:12:52;24.90;51.70
7700;DHT22;3892;47.794;19.126;2023-08-06T10:15:24;24.70;51.10
7700;DHT22;3892;47.794;19.126;2023-08-06T10:17:56;24.60;51.20
7700;DHT22;3892;47.794;19.126;2023-08-06T10:20:24;24.60;52.10
7700;DHT22;3892;47.794;19.126;2023-08-06T10:23:02;24.40;51.40
7700;DHT22;3892;47.794;19.126;2023-08-06T10:25:33;24.30;51.40
7700;DHT22;3892;47.794;19.126;2023-08-06T10:28:07;24.30;51.80
7700;DHT22;3892;47.794;19.126;2023-08-06T10:30:42;24.30;51.90
7700;DHT22;3892;47.794;19.126;2023-08-06T10:33:10;24.40;51.90
7700;DHT22;3892;47.794;19.126;2023-08-06T10:35:40;24.50;51.90
7700;DHT22;3892;47.794;19.126;2023-08-06T10:38:11;24.50;51.40
7700;DHT22;3892;47.794;19.126;2023-08-06T10:40:48;24.60;51.20
7700;DHT22;3892;47.794;19.126;2023-08-06T10:43:26;24.50;50.70
7700;DHT22;3892;47.794;19.126;2023-08-06T10:45:55;24.40;50.90
7700;DHT22;3892;47.794;19.126;2023-08-06T10:48:30;24.40;51.50
7700;DHT22;3892;47.794;19.126;2023-08-06T10:51:00;24.40;51.50
7700;DHT22;3892;47.794;19.126;2023-08-06T10:53:29;24.30;51.40
7700;DHT22;3892;47.794;19.126;2023-08-06T10:56:00;24.30;51.40
7700;DHT22;3892;47.794;19.126;2023-08-06T10:58:31;24.30;51.70
7700;DHT22;3892;47.794;19.126;2023-08-06T11:01:00;24.30;51.60
7700;DHT22;3892;47.794;19.126;2023-08-06T11:03:28;24.30;51.30
7700;DHT22;3892;47.794;19.126;2023-08-06T11:05:57;24.30;51.20
7700;DHT22;3892;47.794;19.126;2023-08-06T11:08:25;24.30;51.10
7700;DHT22;3892;47.794;19.126;2023-08-06T11:10:54;24.30;51.20
7700;DHT22;3892;47.794;19.126;2023-08-06T11:13:29;24.30;51.40
7700;DHT22;3892;47.794;19.126;2023-08-06T11:15:58;24.20;50.70
7700;DHT22;3892;47.794;19.126;2023-08-06T11:18:26;24.30;51.00
7700;DHT22;3892;47.794;19.126;2023-08-06T11:20:54;24.30;51.00
7700;DHT22;3892;47.794;19.126;2023-08-06T11:23:22;24.30;51.00
7700;DHT22;3892;47.794;19.126;2023-08-06T11:25:50;24.40;51.10
7700;DHT22;3892;47.794;19.126;2023-08-06T11:28:19;24.40;50.90
7700;DHT22;3892;47.794;19.126;2023-08-06T11:30:49;24.30;50.80
7700;DHT22;3892;47.794;19.126;2023-08-06T11:33:20;24.30;50.80
7700;DHT22;3892;47.794;19.126;2023-08-06T11:35:49;24.40;51.00
7700;DHT22;3892;47.794;19.126;2023-08-06T11:38:17;24.50;51.10
7700;DHT22;3892;47.794;19.126;2023-08-06T11:40:46;24.50;50.90
7700;DHT22;3892;47.794;19.126;2023-08-06T11:43:14;24.60;50.70
7700;DHT22;3892;47.794;19.126;2023-08-06T11:45:43;24.70;50.70
7700;DHT22;3892;47.794;19.126;2023-08-06T11:48:12;24.60;50.10
7700;DHT22;3892;47.794;19.126;2023-08-06T11:50:40;24.60;50.80
7700;DHT22;3892;47.794;19.126;2023-08-06T11:53:13;24.60;50.60
7700;DHT22;3892;47.794;19.126;2023-08-06T11:55:42;24.60;50.40
7700;DHT22;3892;47.794;19.126;2023-08-06T11:58:10;24.60;50.80
7700;DHT22;3892;47.794;19.126;2023-08-06T12:00:39;24.60;50.50
7700;DHT22;3892;47.794;19.126;2023-08-06T12:03:07;24.50;50.60
7700;DHT22;3892;47.794;19.126;2023-08-06T12:05:39;24.50;50.00
7700;DHT22;3892;47.794;19.126;2023-08-06T12:08:09;24.50;50.20
7700;DHT22;3892;47.794;19.126;2023-08-06T12:10:37;24.50;50.00
7700;DHT22;3892;47.794;19.126;2023-08-06T12:13:05;24.50;49.90
7700;DHT22;3892;47.794;19.126;2023-08-06T12:15:33;24.40;50.40
7700;DHT22;3892;47.794;19.126;2023-08-06T12:18:01;24.30;50.10
7700;DHT22;3892;47.794;19.126;2023-08-06T12:20:29;24.40;50.40
7700;DHT22;3892;47.794;19.126;2023-08-06T12:22:58;24.40;50.50
7700;DHT22;3892;47.794;19.126;2023-08-06T12:25:27;24.70;50.10
7700;DHT22;3892;47.794;19.126;2023-08-06T12:27:55;24.80;50.00
7700;DHT22;3892;47.794;19.126;2023-08-06T12:30:24;24.80;49.50
7700;DHT22;3892;47.794;19.126;2023-08-06T12:32:52;24.80;49.30
7700;DHT22;3892;47.794;19.126;2023-08-06T12:35:20;24.90;49.70
7700;DHT22;3892;47.794;19.126;2023-08-06T12:37:48;24.90;50.00
7700;DHT22;3892;47.794;19.126;2023-08-06T12:40:20;25.00;50.20
7700;DHT22;3892;47.794;19.126;2023-08-06T12:42:59;25.10;49.80
7700;DHT22;3892;47.794;19.126;2023-08-06T12:45:28;25.20;49.80
7700;DHT22;3892;47.794;19.126;2023-08-06T12:47:56;25.20;49.40
7700;DHT22;3892;47.794;19.126;2023-08-06T12:50:24;25.20;49.70
7700;DHT22;3892;47.794;19.126;2023-08-06T12:52:52;25.20;49.60
7700;DHT22;3892;47.794;19.126;2023-08-06T12:55:22;25.20;49.60
7700;DHT22;3892;47.794;19.126;2023-08-06T12:57:50;25.20;49.50
7700;DHT22;3892;47.794;19.126;2023-08-06T13:00:24;25.10;49.40
7700;DHT22;3892;47.794;19.126;2023-08-06T13:02:53;24.80;49.30
7700;DHT22;3892;47.794;19.126;2023-08-06T13:05:23;24.90;49.80
7700;DHT22;3892;47.794;19.126;2023-08-06T13:07:53;24.90;50.10
7700;DHT22;3892;47.794;19.126;2023-08-06T13:10:24;25.00;50.30
7700;DHT22;3892;47.794;19.126;2023-08-06T13:12:54;25.00;49.90
7700;DHT22;3892;47.794;19.126;2023-08-06T13:15:22;25.00;50.00
7700;DHT22;3892;47.794;19.126;2023-08-06T13:17:51;25.00;49.90
7700;DHT22;3892;47.794;19.126;2023-08-06T13:20:19;24.90;50.10
7700;DHT22;3892;47.794;19.126;2023-08-06T13:22:50;24.90;50.20
7700;DHT22;3892;47.794;19.126;2023-08-06T13:25:21;24.90;49.80
7700;DHT22;3892;47.794;19.126;2023-08-06T13:27:51;24.90;50.00
7700;DHT22;3892;47.794;19.126;2023-08-06T13:30:19;24.70;49.80
7700;DHT22;3892;47.794;19.126;2023-08-06T13:32:50;24.80;50.10
7700;DHT22;3892;47.794;19.126;2023-08-06T13:35:19;24.70;50.10
7700;DHT22;3892;47.794;19.126;2023-08-06T13:37:47;24.70;50.40
7700;DHT22;3892;47.794;19.126;2023-08-06T13:40:15;24.60;50.40
7700;DHT22;3892;47.794;19.126;2023-08-06T13:42:45;24.70;50.80
7700;DHT22;3892;47.794;19.126;2023-08-06T13:45:15;24.60;50.80
7700;DHT22;3892;47.794;19.126;2023-08-06T13:47:44;24.70;50.70
7700;DHT22;3892;47.794;19.126;2023-08-06T13:50:13;24.60;50.40
7700;DHT22;3892;47.794;19.126;2023-08-06T13:52:42;24.70;50.80
7700;DHT22;3892;47.794;19.126;2023-08-06T13:55:11;24.60;50.40
7700;DHT22;3892;47.794;19.126;2023-08-06T13:57:40;24.70;50.90
7700;DHT22;3892;47.794;19.126;2023-08-06T14:00:09;24.70;50.70
7700;DHT22;3892;47.794;19.126;2023-08-06T14:02:40;24.60;50.70
7700;DHT22;3892;47.794;19.126;2023-08-06T14:05:10;24.50;50.80
7700;DHT22;3892;47.794;19.126;2023-08-06T14:07:40;24.70;50.90
7700;DHT22;3892;47.794;19.126;2023-08-06T14:10:09;24.60;50.80
7700;DHT22;3892;47.794;19.126;2023-08-06T14:12:38;24.60;50.80
7700;DHT22;3892;47.794;19.126;2023-08-06T14:15:08;24.60;50.80
7700;DHT22;3892;47.794;19.126;2023-08-06T14:17:39;24.50;51.00
7700;DHT22;3892;47.794;19.126;2023-08-06T14:20:08;24.50;50.90
7700;DHT22;3892;47.794;19.126;2023-08-06T14:22:38;24.60;51.00
7700;DHT22;3892;47.794;19.126;2023-08-06T14:25:08;24.60;51.30
7700;DHT22;3892;47.794;19.126;2023-08-06T14:27:38;24.50;51.00
7700;DHT22;3892;47.794;19.126;2023-08-06T14:30:09;24.40;51.10
7700;DHT22;3892;47.794;19.126;2023-08-06T14:32:40;24.40;51.40
7700;DHT22;3892;47.794;19.126;2023-08-06T14:35:10;24.40;51.50
7700;DHT22;3892;47.794;19.126;2023-08-06T14:37:39;24.50;51.90
7700;DHT22;3892;47.794;19.126;2023-08-06T14:40:10;24.60;51.30
7700;DHT22;3892;47.794;19.126;2023-08-06T14:42:39;24.70;51.40
7700;DHT22;3892;47.794;19.126;2023-08-06T14:45:09;24.70;51.20
7700;DHT22;3892;47.794;19.126;2023-08-06T14:47:39;24.70;51.10
7700;DHT22;3892;47.794;19.126;2023-08-06T14:50:08;24.60;50.90
7700;DHT22;3892;47.794;19.126;2023-08-06T14:52:37;24.60;50.90
7700;DHT22;3892;47.794;19.126;2023-08-06T14:55:07;24.40;50.80
7700;DHT22;3892;47.794;19.126;2023-08-06T14:57:36;24.30;50.80
7700;DHT22;3892;47.794;19.126;2023-08-06T15:00:06;24.40;51.10
7700;DHT22;3892;47.794;19.126;2023-08-06T15:02:41;24.30;51.10
7700;DHT22;3892;47.794;19.126;2023-08-06T15:05:10;24.40;51.40
7700;DHT22;3892;47.794;19.126;2023-08-06T15:07:42;24.40;51.40
7700;DHT22;3892;47.794;19.126;2023-08-06T15:10:13;24.40;50.60
7700;DHT22;3892;47.794;19.126;2023-08-06T15:12:51;24.40;50.60
7700;DHT22;3892;47.794;19.126;2023-08-06T15:15:23;24.40;50.50
7700;DHT22;3892;47.794;19.126;2023-08-06T15:17:56;24.50;50.80
7700;DHT22;3892;47.794;19.126;2023-08-06T15:20:26;24.50;50.90
7700;DHT22;3892;47.794;19.126;2023-08-06T15:22:56;24.40;51.10
7700;DHT22;3892;47.794;19.126;2023-08-06T15:25:27;24.50;51.40
7700;DHT22;3892;47.794;19.126;2023-08-06T15:27:56;24.50;51.60
7700;DHT22;3892;47.794;19.126;2023-08-06T15:30:25;24.50;51.60
7700;DHT22;3892;47.794;19.126;2023-08-06T15:32:55;24.60;51.60
7700;DHT22;3892;47.794;19.126;2023-08-06T15:35:24;24.60;51.10
7700;DHT22;3892;47.794;19.126;2023-08-06T15:37:55;24.60;51.10
7700;DHT22;3892;47.794;19.126;2023-08-06T15:40:23;24.70;51.60
7700;DHT22;3892;47.794;19.126;2023-08-06T15:42:52;24.70;51.40
7700;DHT22;3892;47.794;19.126;2023-08-06T15:45:20;24.80;51.20
7700;DHT22;3892;47.794;19.126;2023-08-06T15:47:48;24.80;51.30
7700;DHT22;3892;47.794;19.126;2023-08-06T15:50:18;24.80;50.90
7700;DHT22;3892;47.794;19.126;2023-08-06T15:52:47;24.70;50.50
7700;DHT22;3892;47.794;19.126;2023-08-06T15:55:16;24.80;50.40
7700;DHT22;3892;47.794;19.126;2023-08-06T15:57:44;24.80;50.30